sensor_id;sensor_type;location;lat;lon;timestamp;P1;durP1;ratioP1;P2;durP2;ratioP2
56297;SDS011;42208;6.376;-10.782;2022-12-24T00:01:34;274.58;;;123.80;;
56297;SDS011;42208;6.376;-10.782;2022-12-24T00:04:03;259.83;;;111.88;;
56297;SDS011;42208;6.376;-10.782;2022-12-24T00:06:32;273.60;;;108.30;;
56297;SDS011;42208;6.376;-10.782;2022-12-24T00:09:01;271.95;;;106.40;;
56297;SDS011;42208;6.376;-10.782;2022-12-24T00:11:30;264.73;;;104.75;;
56297;SDS011;42208;6.376;-10.782;2022-12-24T00:13:59;247.57;;;103.03;;
56297;SDS011;42208;6.376;-10.782;2022-12-24T00:16:27;254.48;;;95.85;;
56297;SDS011;42208;6.376;-10.782;2022-12-24T00:18:56;230.00;;;94.38;;
56297;SDS011;42208;6.376;-10.782;2022-12-24T00:21:24;243.35;;;99.60;;
56297;SDS011;42208;6.376;-10.782;2022-12-24T00:23:53;237.43;;;98.53;;
56297;SDS011;42208;6.376;-10.782;2022-12-24T00:26:21;243.52;;;102.82;;
56297;SDS011;42208;6.376;-10.782;2022-12-24T00:28:49;250.90;;;104.57;;
56297;SDS011;42208;6.376;-10.782;2022-12-24T00:31:18;253.30;;;107.45;;
56297;SDS011;42208;6.376;-10.782;2022-12-24T00:33:46;326.15;;;132.85;;
56297;SDS011;42208;6.376;-10.782;2022-12-24T00:36:15;327.63;;;136.32;;
56297;SDS011;42208;6.376;-10.782;2022-12-24T00:38:44;313.45;;;132.98;;
56297;SDS011;42208;6.376;-10.782;2022-12-24T00:41:13;274.60;;;120.13;;
56297;SDS011;42208;6.376;-10.782;2022-12-24T00:43:42;276.10;;;108.55;;
56297;SDS011;42208;6.376;-10.782;2022-12-24T00:46:10;211.90;;;94.85;;
56297;SDS011;42208;6.376;-10.782;2022-12-24T00:48:39;211.32;;;87.50;;
56297;SDS011;42208;6.376;-10.782;2022-12-24T00:51:07;186.50;;;90.47;;
56297;SDS011;42208;6.376;-10.782;2022-12-24T00:53:36;205.23;;;93.88;;
56297;SDS011;42208;6.376;-10.782;2022-12-24T00:56:04;203.93;;;95.22;;
56297;SDS011;42208;6.376;-10.782;2022-12-24T00:58:33;235.55;;;107.78;;
56297;SDS011;42208;6.376;-10.782;2022-12-24T01:01:02;226.98;;;104.80;;
56297;SDS011;42208;6.376;-10.782;2022-12-24T01:03:31;214.90;;;99.70;;
56297;SDS011;42208;6.376;-10.782;2022-12-24T01:06:03;210.50;;;102.07;;
56297;SDS011;42208;6.376;-10.782;2022-12-24T01:08:37;235.05;;;103.68;;
56297;SDS011;42208;6.376;-10.782;2022-12-24T01:11:06;227.82;;;105.35;;
56297;SDS011;42208;6.376;-10.782;2022-12-24T01:13:35;231.57;;;100.05;;
56297;SDS011;42208;6.376;-10.782;2022-12-24T01:16:12;225.20;;;95.38;;
56297;SDS011;42208;6.376;-10.782;2022-12-24T01:18:42;209.52;;;92.88;;
56297;SDS011;42208;6.376;-10.782;2022-12-24T01:21:11;203.43;;;87.47;;
56297;SDS011;42208;6.376;-10.782;2022-12-24T01:23:39;206.77;;;88.80;;
56297;SDS011;42208;6.376;-10.782;2022-12-24T01:26:08;214.05;;;91.97;;
56297;SDS011;42208;6.376;-10.782;2022-12-24T01:28:37;187.35;;;91.55;;
56297;SDS011;42208;6.376;-10.782;2022-12-24T01:31:12;191.38;;;88.65;;
56297;SDS011;42208;6.376;-10.782;2022-12-24T01:33:43;204.90;;;93.60;;
56297;SDS011;42208;6.376;-10.782;2022-12-24T01:36:13;206.70;;;92.70;;
56297;SDS011;42208;6.376;-10.782;2022-12-24T01:38:41;213.13;;;96.75;;
56297;SDS011;42208;6.376;-10.782;2022-12-24T01:41:16;207.95;;;90.35;;
56297;SDS011;42208;6.376;-10.782;2022-12-24T01:43:46;198.02;;;88.75;;
56297;SDS011;42208;6.376;-10.782;2022-12-24T01:46:17;198.75;;;86.47;;
56297;SDS011;42208;6.376;-10.782;2022-12-24T01:48:52;185.68;;;81.20;;
56297;SDS011;42208;6.376;-10.782;2022-12-24T01:51:38;184.02;;;77.18;;
56297;SDS011;42208;6.376;-10.782;2022-12-24T01:57:10;158.30;;;66.28;;
56297;SDS011;42208;6.376;-10.782;2022-12-24T01:59:48;127.97;;;58.60;;
56297;SDS011;42208;6.376;-10.782;2022-12-24T02:02:19;116.70;;;52.08;;
56297;SDS011;42208;6.376;-10.782;2022-12-24T02:05:00;110.57;;;48.65;;
56297;SDS011;42208;6.376;-10.782;2022-12-24T02:07:36;120.18;;;49.28;;
56297;SDS011;42208;6.376;-10.782;2022-12-24T02:10:07;117.50;;;52.70;;
56297;SDS011;42208;6.376;-10.782;2022-12-24T02:12:38;134.32;;;54.10;;
56297;SDS011;42208;6.376;-10.782;2022-12-24T02:15:09;127.53;;;56.20;;
56297;SDS011;42208;6.376;-10.782;2022-12-24T02:20:34;136.50;;;58.35;;
56297;SDS011;42208;6.376;-10.782;2022-12-24T02:32:31;110.90;;;52.15;;
56297;SDS011;42208;6.376;-10.782;2022-12-24T02:35:10;113.10;;;53.22;;
56297;SDS011;42208;6.376;-10.782;2022-12-24T02:37:48;111.28;;;50.40;;
56297;SDS011;42208;6.376;-10.782;2022-12-24T02:40:33;117.28;;;50.65;;
56297;SDS011;42208;6.376;-10.782;2022-12-24T02:43:09;112.35;;;53.33;;
56297;SDS011;42208;6.376;-10.782;2022-12-24T02:45:41;108.35;;;51.00;;
56297;SDS011;42208;6.376;-10.782;2022-12-24T02:48:19;101.70;;;49.35;;
56297;SDS011;42208;6.376;-10.782;2022-12-24T02:51:08;116.10;;;48.50;;
56297;SDS011;42208;6.376;-10.782;2022-12-24T02:53:38;103.88;;;48.42;;
56297;SDS011;42208;6.376;-10.782;2022-12-24T02:56:23;87.35;;;46.35;;
56297;SDS011;42208;6.376;-10.782;2022-12-24T03:04:57;96.45;;;45.15;;
56297;SDS011;42208;6.376;-10.782;2022-12-24T03:07:37;102.47;;;44.35;;
56297;SDS011;42208;6.376;-10.782;2022-12-24T03:13:05;113.65;;;52.58;;
56297;SDS011;42208;6.376;-10.782;2022-12-24T03:15:40;109.93;;;51.55;;
56297;SDS011;42208;6.376;-10.782;2022-12-24T03:20:24;104.75;;;50.10;;
56297;SDS011;42208;6.376;-10.782;2022-12-24T03:25:00;98.32;;;45.45;;
56297;SDS011;42208;6.376;-10.782;2022-12-24T03:27:29;97.93;;;46.78;;
56297;SDS011;42208;6.376;-10.782;2022-12-24T03:29:58;96.63;;;48.05;;
56297;SDS011;42208;6.376;-10.782;2022-12-24T03:32:28;102.15;;;46.10;;
56297;SDS011;42208;6.376;-10.782;2022-12-24T03:34:58;110.18;;;46.60;;
56297;SDS011;42208;6.376;-10.782;2022-12-24T03:37:27;106.03;;;46.47;;
56297;SDS011;42208;6.376;-10.782;2022-12-24T03:39:55;110.63;;;45.95;;
56297;SDS011;42208;6.376;-10.782;2022-12-24T03:42:23;81.40;;;44.28;;
56297;SDS011;42208;6.376;-10.782;2022-12-24T03:44:53;85.20;;;41.90;;
56297;SDS011;42208;6.376;-10.782;2022-12-24T03:47:21;86.15;;;43.10;;
56297;SDS011;42208;6.376;-10.782;2022-12-24T03:49:49;96.38;;;45.38;;
56297;SDS011;42208;6.376;-10.782;2022-12-24T03:52:18;74.50;;;43.00;;
56297;SDS011;42208;6.376;-10.782;2022-12-24T03:54:47;80.63;;;39.53;;
56297;SDS011;42208;6.376;-10.782;2022-12-24T03:57:16;73.45;;;38.33;;
56297;SDS011;42208;6.376;-10.782;2022-12-24T03:59:44;76.30;;;38.65;;
56297;SDS011;42208;6.376;-10.782;2022-12-24T04:02:13;82.85;;;39.55;;
56297;SDS011;42208;6.376;-10.782;2022-12-24T04:04:42;75.97;;;38.30;;
56297;SDS011;42208;6.376;-10.782;2022-12-24T04:07:10;91.15;;;36.22;;
56297;SDS011;42208;6.376;-10.782;2022-12-24T04:09:38;69.70;;;35.17;;
56297;SDS011;42208;6.376;-10.782;2022-12-24T04:12:07;68.65;;;34.60;;
56297;SDS011;42208;6.376;-10.782;2022-12-24T04:14:35;61.15;;;33.08;;
56297;SDS011;42208;6.376;-10.782;2022-12-24T04:17:03;61.63;;;32.35;;
56297;SDS011;42208;6.376;-10.782;2022-12-24T04:19:33;67.05;;;32.58;;
56297;SDS011;42208;6.376;-10.782;2022-12-24T04:22:03;66.00;;;31.20;;
56297;SDS011;42208;6.376;-10.782;2022-12-24T04:27:35;57.45;;;29.55;;
56297;SDS011;42208;6.376;-10.782;2022-12-24T04:30:04;53.55;;;28.67;;
56297;SDS011;42208;6.376;-10.782;2022-12-24T04:32:32;68.40;;;30.38;;
56297;SDS011;42208;6.376;-10.782;2022-12-24T04:35:01;58.97;;;31.40;;
56297;SDS011;42208;6.376;-10.782;2022-12-24T04:37:29;56.58;;;30.00;;
56297;SDS011;42208;6.376;-10.782;2022-12-24T04:39:57;63.55;;;31.10;;
56297;SDS011;42208;6.376;-10.782;2022-12-24T04:42:26;76.65;;;33.38;;
56297;SDS011;42208;6.376;-10.782;2022-12-24T04:44:54;62.47;;;30.85;;
56297;SDS011;42208;6.376;-10.782;2022-12-24T04:47:22;62.00;;;30.27;;
56297;SDS011;42208;6.376;-10.782;2022-12-24T04:49:50;53.45;;;27.38;;
56297;SDS011;42208;6.376;-10.782;2022-12-24T04:52:19;71.07;;;28.13;;
56297;SDS011;42208;6.376;-10.782;2022-12-24T04:54:47;55.58;;;26.73;;
56297;SDS011;42208;6.376;-10.782;2022-12-24T04:57:15;59.92;;;26.67;;
56297;SDS011;42208;6.376;-10.782;2022-12-24T04:59:44;51.60;;;28.23;;
56297;SDS011;42208;6.376;-10.782;2022-12-24T05:02:12;61.42;;;26.73;;
56297;SDS011;42208;6.376;-10.782;2022-12-24T05:04:40;45.90;;;26.35;;
56297;SDS011;42208;6.376;-10.782;2022-12-24T05:07:09;55.65;;;27.52;;
56297;SDS011;42208;6.376;-10.782;2022-12-24T05:09:37;57.40;;;25.23;;
56297;SDS011;42208;6.376;-10.782;2022-12-24T05:12:05;50.20;;;26.25;;
56297;SDS011;42208;6.376;-10.782;2022-12-24T05:14:34;61.30;;;25.83;;
56297;SDS011;42208;6.376;-10.782;2022-12-24T05:17:02;52.50;;;22.83;;
56297;SDS011;42208;6.376;-10.782;2022-12-24T05:19:30;53.17;;;26.23;;
56297;SDS011;42208;6.376;-10.782;2022-12-24T05:21:59;43.28;;;23.17;;
56297;SDS011;42208;6.376;-10.782;2022-12-24T05:24:27;44.28;;;23.20;;
56297;SDS011;42208;6.376;-10.782;2022-12-24T05:26:56;41.47;;;21.55;;
56297;SDS011;42208;6.376;-10.782;2022-12-24T05:29:25;50.42;;;21.80;;
56297;SDS011;42208;6.376;-10.782;2022-12-24T05:31:53;45.35;;;22.73;;
56297;SDS011;42208;6.376;-10.782;2022-12-24T05:34:21;48.65;;;22.90;;
56297;SDS011;42208;6.376;-10.782;2022-12-24T05:36:49;39.42;;;20.83;;
56297;SDS011;42208;6.376;-10.782;2022-12-24T05:39:18;51.03;;;22.35;;
56297;SDS011;42208;6.376;-10.782;2022-12-24T05:41:46;50.22;;;22.92;;
56297;SDS011;42208;6.376;-10.782;2022-12-24T05:44:14;47.00;;;21.10;;
56297;SDS011;42208;6.376;-10.782;2022-12-24T05:46:43;44.72;;;21.90;;
56297;SDS011;42208;6.376;-10.782;2022-12-24T05:49:11;51.70;;;21.17;;
56297;SDS011;42208;6.376;-10.782;2022-12-24T05:51:40;41.95;;;21.27;;
56297;SDS011;42208;6.376;-10.782;2022-12-24T05:54:09;47.58;;;22.00;;
56297;SDS011;42208;6.376;-10.782;2022-12-24T05:56:37;56.65;;;24.55;;
56297;SDS011;42208;6.376;-10.782;2022-12-24T05:59:05;61.53;;;23.13;;
56297;SDS011;42208;6.376;-10.782;2022-12-24T06:01:33;53.60;;;23.83;;
56297;SDS011;42208;6.376;-10.782;2022-12-24T06:04:02;64.57;;;24.92;;
56297;SDS011;42208;6.376;-10.782;2022-12-24T06:06:31;66.30;;;24.27;;
56297;SDS011;42208;6.376;-10.782;2022-12-24T06:08:59;51.08;;;23.02;;
56297;SDS011;42208;6.376;-10.782;2022-12-24T06:11:28;57.17;;;23.35;;
56297;SDS011;42208;6.376;-10.782;2022-12-24T06:13:56;61.55;;;24.48;;
56297;SDS011;42208;6.376;-10.782;2022-12-24T06:16:24;44.42;;;21.75;;
56297;SDS011;42208;6.376;-10.782;2022-12-24T06:18:53;45.35;;;20.65;;
56297;SDS011;42208;6.376;-10.782;2022-12-24T06:21:21;39.25;;;20.42;;
56297;SDS011;42208;6.376;-10.782;2022-12-24T06:23:50;45.88;;;20.88;;
56297;SDS011;42208;6.376;-10.782;2022-12-24T06:26:19;46.47;;;19.95;;
56297;SDS011;42208;6.376;-10.782;2022-12-24T06:28:49;41.47;;;18.48;;
56297;SDS011;42208;6.376;-10.782;2022-12-24T06:31:20;38.80;;;18.80;;
56297;SDS011;42208;6.376;-10.782;2022-12-24T06:33:49;44.90;;;17.42;;
56297;SDS011;42208;6.376;-10.782;2022-12-24T06:36:19;44.83;;;18.40;;
56297;SDS011;42208;6.376;-10.782;2022-12-24T06:38:50;49.75;;;18.92;;
56297;SDS011;42208;6.376;-10.782;2022-12-24T06:41:20;39.17;;;17.85;;
56297;SDS011;42208;6.376;-10.782;2022-12-24T06:43:50;45.88;;;20.90;;
56297;SDS011;42208;6.376;-10.782;2022-12-24T06:46:21;46.30;;;20.42;;
56297;SDS011;42208;6.376;-10.782;2022-12-24T06:48:50;57.08;;;20.77;;
56297;SDS011;42208;6.376;-10.782;2022-12-24T06:51:18;53.05;;;20.98;;
56297;SDS011;42208;6.376;-10.782;2022-12-24T06:53:49;59.50;;;20.83;;
56297;SDS011;42208;6.376;-10.782;2022-12-24T06:56:18;54.45;;;19.98;;
56297;SDS011;42208;6.376;-10.782;2022-12-24T06:58:47;51.45;;;20.73;;
56297;SDS011;42208;6.376;-10.782;2022-12-24T07:01:16;59.88;;;21.90;;
56297;SDS011;42208;6.376;-10.782;2022-12-24T07:03:46;54.72;;;23.63;;
56297;SDS011;42208;6.376;-10.782;2022-12-24T07:06:24;53.40;;;24.13;;
56297;SDS011;42208;6.376;-10.782;2022-12-24T07:08:54;43.10;;;21.35;;
56297;SDS011;42208;6.376;-10.782;2022-12-24T07:11:23;49.13;;;22.15;;
56297;SDS011;42208;6.376;-10.782;2022-12-24T07:13:52;52.70;;;22.40;;
56297;SDS011;42208;6.376;-10.782;2022-12-24T07:16:20;47.30;;;21.85;;
56297;SDS011;42208;6.376;-10.782;2022-12-24T07:18:49;48.05;;;22.38;;
56297;SDS011;42208;6.376;-10.782;2022-12-24T07:21:18;49.83;;;22.45;;
56297;SDS011;42208;6.376;-10.782;2022-12-24T07:23:46;62.15;;;22.83;;
56297;SDS011;42208;6.376;-10.782;2022-12-24T07:26:14;59.90;;;23.83;;
56297;SDS011;42208;6.376;-10.782;2022-12-24T07:28:44;53.55;;;22.58;;
56297;SDS011;42208;6.376;-10.782;2022-12-24T07:31:13;58.60;;;21.80;;
56297;SDS011;42208;6.376;-10.782;2022-12-24T07:33:41;51.95;;;20.45;;
56297;SDS011;42208;6.376;-10.782;2022-12-24T07:36:10;40.38;;;20.10;;
56297;SDS011;42208;6.376;-10.782;2022-12-24T07:38:44;50.25;;;20.48;;
56297;SDS011;42208;6.376;-10.782;2022-12-24T07:41:13;49.50;;;20.80;;
56297;SDS011;42208;6.376;-10.782;2022-12-24T07:43:41;40.47;;;20.75;;
56297;SDS011;42208;6.376;-10.782;2022-12-24T07:46:09;58.53;;;23.60;;
56297;SDS011;42208;6.376;-10.782;2022-12-24T07:48:38;45.45;;;23.23;;
56297;SDS011;42208;6.376;-10.782;2022-12-24T07:51:06;60.45;;;24.40;;
56297;SDS011;42208;6.376;-10.782;2022-12-24T07:53:35;48.78;;;22.75;;
56297;SDS011;42208;6.376;-10.782;2022-12-24T07:56:03;42.97;;;21.20;;
56297;SDS011;42208;6.376;-10.782;2022-12-24T07:58:38;50.78;;;21.02;;
56297;SDS011;42208;6.376;-10.782;2022-12-24T08:01:07;56.78;;;20.10;;
56297;SDS011;42208;6.376;-10.782;2022-12-24T08:03:38;47.47;;;18.58;;
56297;SDS011;42208;6.376;-10.782;2022-12-24T08:06:07;47.03;;;20.08;;
56297;SDS011;42208;6.376;-10.782;2022-12-24T08:08:35;49.67;;;19.45;;
56297;SDS011;42208;6.376;-10.782;2022-12-24T08:11:05;36.70;;;18.13;;
56297;SDS011;42208;6.376;-10.782;2022-12-24T08:13:34;44.70;;;17.70;;
56297;SDS011;42208;6.376;-10.782;2022-12-24T08:16:02;53.88;;;18.00;;
56297;SDS011;42208;6.376;-10.782;2022-12-24T08:18:31;37.78;;;17.63;;
56297;SDS011;42208;6.376;-10.782;2022-12-24T08:20:59;36.17;;;18.35;;
56297;SDS011;42208;6.376;-10.782;2022-12-24T08:23:28;62.45;;;23.00;;
56297;SDS011;42208;6.376;-10.782;2022-12-24T08:25:56;40.85;;;20.23;;
56297;SDS011;42208;6.376;-10.782;2022-12-24T08:28:24;53.97;;;23.25;;
56297;SDS011;42208;6.376;-10.782;2022-12-24T08:30:53;38.92;;;20.05;;
56297;SDS011;42208;6.376;-10.782;2022-12-24T08:33:21;39.70;;;20.35;;
56297;SDS011;42208;6.376;-10.782;2022-12-24T08:35:50;38.75;;;18.48;;
56297;SDS011;42208;6.376;-10.782;2022-12-24T08:38:20;43.50;;;18.30;;
56297;SDS011;42208;6.376;-10.782;2022-12-24T08:40:51;32.97;;;17.50;;
56297;SDS011;42208;6.376;-10.782;2022-12-24T08:43:20;42.03;;;17.83;;
56297;SDS011;42208;6.376;-10.782;2022-12-24T08:45:49;43.30;;;18.58;;
56297;SDS011;42208;6.376;-10.782;2022-12-24T08:48:17;45.05;;;18.65;;
56297;SDS011;42208;6.376;-10.782;2022-12-24T08:50:46;38.05;;;17.52;;
56297;SDS011;42208;6.376;-10.782;2022-12-24T08:53:14;33.50;;;16.58;;
56297;SDS011;42208;6.376;-10.782;2022-12-24T08:55:43;40.78;;;19.58;;
56297;SDS011;42208;6.376;-10.782;2022-12-24T08:58:19;41.55;;;17.85;;
56297;SDS011;42208;6.376;-10.782;2022-12-24T09:00:47;39.20;;;17.02;;
56297;SDS011;42208;6.376;-10.782;2022-12-24T09:03:16;42.53;;;16.63;;
56297;SDS011;42208;6.376;-10.782;2022-12-24T09:05:53;41.70;;;17.45;;
56297;SDS011;42208;6.376;-10.782;2022-12-24T09:08:21;39.88;;;16.73;;
56297;SDS011;42208;6.376;-10.782;2022-12-24T09:10:50;43.45;;;18.20;;
56297;SDS011;42208;6.376;-10.782;2022-12-24T09:13:18;39.67;;;17.20;;
56297;SDS011;42208;6.376;-10.782;2022-12-24T09:15:53;41.63;;;16.23;;
56297;SDS011;42208;6.376;-10.782;2022-12-24T09:18:22;35.50;;;15.43;;
56297;SDS011;42208;6.376;-10.782;2022-12-24T09:20:51;36.97;;;15.10;;
56297;SDS011;42208;6.376;-10.782;2022-12-24T09:23:25;40.47;;;16.45;;
56297;SDS011;42208;6.376;-10.782;2022-12-24T09:25:54;39.28;;;16.55;;
56297;SDS011;42208;6.376;-10.782;2022-12-24T09:28:22;45.35;;;18.48;;
56297;SDS011;42208;6.376;-10.782;2022-12-24T09:30:58;45.70;;;17.48;;
56297;SDS011;42208;6.376;-10.782;2022-12-24T09:33:28;49.17;;;20.27;;
56297;SDS011;42208;6.376;-10.782;2022-12-24T09:35:58;46.38;;;19.75;;
56297;SDS011;42208;6.376;-10.782;2022-12-24T09:38:27;55.00;;;22.33;;
56297;SDS011;42208;6.376;-10.782;2022-12-24T09:40:56;52.97;;;22.75;;
56297;SDS011;42208;6.376;-10.782;2022-12-24T09:43:34;59.20;;;19.98;;
56297;SDS011;42208;6.376;-10.782;2022-12-24T09:48:38;45.38;;;19.92;;
56297;SDS011;42208;6.376;-10.782;2022-12-24T09:51:10;56.88;;;19.17;;
56297;SDS011;42208;6.376;-10.782;2022-12-24T09:56:39;57.63;;;20.67;;
56297;SDS011;42208;6.376;-10.782;2022-12-24T09:59:15;45.67;;;17.15;;
56297;SDS011;42208;6.376;-10.782;2022-12-24T10:01:47;49.15;;;16.10;;
56297;SDS011;42208;6.376;-10.782;2022-12-24T10:04:19;54.03;;;16.60;;
56297;SDS011;42208;6.376;-10.782;2022-12-24T10:09:35;37.33;;;17.45;;
56297;SDS011;42208;6.376;-10.782;2022-12-24T10:12:31;46.60;;;16.92;;
56297;SDS011;42208;6.376;-10.782;2022-12-24T10:15:26;54.17;;;18.10;;
56297;SDS011;42208;6.376;-10.782;2022-12-24T10:23:50;54.65;;;19.05;;
56297;SDS011;42208;6.376;-10.782;2022-12-24T10:26:53;49.90;;;18.63;;
56297;SDS011;42208;6.376;-10.782;2022-12-24T10:29:26;54.83;;;18.10;;
56297;SDS011;42208;6.376;-10.782;2022-12-24T10:34:41;42.38;;;16.10;;
56297;SDS011;42208;6.376;-10.782;2022-12-24T10:37:13;47.33;;;17.27;;
56297;SDS011;42208;6.376;-10.782;2022-12-24T10:39:46;44.80;;;17.92;;
56297;SDS011;42208;6.376;-10.782;2022-12-24T10:42:14;31.42;;;16.13;;
56297;SDS011;42208;6.376;-10.782;2022-12-24T10:44:46;32.58;;;14.93;;
56297;SDS011;42208;6.376;-10.782;2022-12-24T10:47:22;32.70;;;14.23;;
56297;SDS011;42208;6.376;-10.782;2022-12-24T10:50:00;39.00;;;14.18;;
56297;SDS011;42208;6.376;-10.782;2022-12-24T10:52:50;40.80;;;14.23;;
56297;SDS011;42208;6.376;-10.782;2022-12-24T10:55:27;46.25;;;14.30;;
56297;SDS011;42208;6.376;-10.782;2022-12-24T10:58:03;42.92;;;13.88;;
56297;SDS011;42208;6.376;-10.782;2022-12-24T11:00:33;46.92;;;13.95;;
56297;SDS011;42208;6.376;-10.782;2022-12-24T11:03:14;27.17;;;12.52;;
56297;SDS011;42208;6.376;-10.782;2022-12-24T11:08:39;34.03;;;13.35;;
56297;SDS011;42208;6.376;-10.782;2022-12-24T11:11:16;42.50;;;14.10;;
56297;SDS011;42208;6.376;-10.782;2022-12-24T11:16:33;42.20;;;13.07;;
56297;SDS011;42208;6.376;-10.782;2022-12-24T11:19:04;47.90;;;14.25;;
56297;SDS011;42208;6.376;-10.782;2022-12-24T11:21:42;44.45;;;14.55;;
56297;SDS011;42208;6.376;-10.782;2022-12-24T11:26:40;57.60;;;17.17;;
56297;SDS011;42208;6.376;-10.782;2022-12-24T11:29:23;53.65;;;17.35;;
56297;SDS011;42208;6.376;-10.782;2022-12-24T11:32:09;43.22;;;15.38;;
56297;SDS011;42208;6.376;-10.782;2022-12-24T11:34:48;45.85;;;13.57;;
56297;SDS011;42208;6.376;-10.782;2022-12-24T11:37:20;38.03;;;13.60;;
56297;SDS011;42208;6.376;-10.782;2022-12-24T11:42:33;38.90;;;13.85;;
56297;SDS011;42208;6.376;-10.782;2022-12-24T11:45:04;35.47;;;14.93;;
56297;SDS011;42208;6.376;-10.782;2022-12-24T11:47:44;40.22;;;14.85;;
56297;SDS011;42208;6.376;-10.782;2022-12-24T12:03:22;39.13;;;14.40;;
56297;SDS011;42208;6.376;-10.782;2022-12-24T12:06:00;43.53;;;12.13;;
56297;SDS011;42208;6.376;-10.782;2022-12-24T12:08:33;55.90;;;14.10;;
56297;SDS011;42208;6.376;-10.782;2022-12-24T12:11:08;60.22;;;14.88;;
56297;SDS011;42208;6.376;-10.782;2022-12-24T12:13:40;40.17;;;11.90;;
56297;SDS011;42208;6.376;-10.782;2022-12-24T12:18:59;49.85;;;13.45;;
56297;SDS011;42208;6.376;-10.782;2022-12-24T12:21:42;48.03;;;12.48;;
56297;SDS011;42208;6.376;-10.782;2022-12-24T12:24:14;39.47;;;11.38;;
56297;SDS011;42208;6.376;-10.782;2022-12-24T12:27:42;36.40;;;12.13;;
56297;SDS011;42208;6.376;-10.782;2022-12-24T12:30:00;41.78;;;12.18;;
56297;SDS011;42208;6.376;-10.782;2022-12-24T12:35:39;27.55;;;11.45;;
56297;SDS011;42208;6.376;-10.782;2022-12-24T12:38:15;46.40;;;13.07;;
56297;SDS011;42208;6.376;-10.782;2022-12-24T12:40:56;47.13;;;13.23;;
56297;SDS011;42208;6.376;-10.782;2022-12-24T12:58:28;46.55;;;12.30;;
56297;SDS011;42208;6.376;-10.782;2022-12-24T13:01:27;43.38;;;12.30;;
56297;SDS011;42208;6.376;-10.782;2022-12-24T13:07:38;33.05;;;11.75;;
56297;SDS011;42208;6.376;-10.782;2022-12-24T13:10:10;41.97;;;12.20;;
56297;SDS011;42208;6.376;-10.782;2022-12-24T13:18:43;43.72;;;12.93;;
56297;SDS011;42208;6.376;-10.782;2022-12-24T13:21:32;45.47;;;13.60;;
56297;SDS011;42208;6.376;-10.782;2022-12-24T13:24:13;36.72;;;12.95;;
56297;SDS011;42208;6.376;-10.782;2022-12-24T13:27:03;41.33;;;12.50;;
56297;SDS011;42208;6.376;-10.782;2022-12-24T13:29:52;33.50;;;12.80;;
56297;SDS011;42208;6.376;-10.782;2022-12-24T13:32:37;44.10;;;13.77;;
56297;SDS011;42208;6.376;-10.782;2022-12-24T13:37:47;32.75;;;12.93;;
56297;SDS011;42208;6.376;-10.782;2022-12-24T13:40:23;43.53;;;15.32;;
56297;SDS011;42208;6.376;-10.782;2022-12-24T13:50:37;42.33;;;13.60;;
56297;SDS011;42208;6.376;-10.782;2022-12-24T13:55:53;41.58;;;13.93;;
56297;SDS011;42208;6.376;-10.782;2022-12-24T13:58:24;50.40;;;13.73;;
56297;SDS011;42208;6.376;-10.782;2022-12-24T14:00:53;45.70;;;12.93;;
56297;SDS011;42208;6.376;-10.782;2022-12-24T14:03:45;44.58;;;12.80;;
56297;SDS011;42208;6.376;-10.782;2022-12-24T14:09:20;52.00;;;12.90;;
56297;SDS011;42208;6.376;-10.782;2022-12-24T14:14:32;41.38;;;12.85;;
56297;SDS011;42208;6.376;-10.782;2022-12-24T14:17:13;52.22;;;13.70;;
56297;SDS011;42208;6.376;-10.782;2022-12-24T14:19:57;52.15;;;14.82;;
56297;SDS011;42208;6.376;-10.782;2022-12-24T14:22:29;48.53;;;12.60;;
56297;SDS011;42208;6.376;-10.782;2022-12-24T14:25:16;44.78;;;12.90;;
56297;SDS011;42208;6.376;-10.782;2022-12-24T14:30:23;38.78;;;13.75;;
56297;SDS011;42208;6.376;-10.782;2022-12-24T14:32:52;46.55;;;13.25;;
56297;SDS011;42208;6.376;-10.782;2022-12-24T14:35:28;51.38;;;13.18;;
56297;SDS011;42208;6.376;-10.782;2022-12-24T14:38:04;37.45;;;13.13;;
56297;SDS011;42208;6.376;-10.782;2022-12-24T14:40:47;42.75;;;14.02;;
56297;SDS011;42208;6.376;-10.782;2022-12-24T14:43:22;51.33;;;18.70;;
56297;SDS011;42208;6.376;-10.782;2022-12-24T14:49:24;44.05;;;14.13;;
56297;SDS011;42208;6.376;-10.782;2022-12-24T14:52:04;63.05;;;21.02;;
56297;SDS011;42208;6.376;-10.782;2022-12-24T14:55:27;53.55;;;16.05;;
56297;SDS011;42208;6.376;-10.782;2022-12-24T15:00:47;62.92;;;22.33;;
56297;SDS011;42208;6.376;-10.782;2022-12-24T15:03:21;71.30;;;22.33;;
56297;SDS011;42208;6.376;-10.782;2022-12-24T15:05:52;80.22;;;25.73;;
56297;SDS011;42208;6.376;-10.782;2022-12-24T15:08:25;44.42;;;15.25;;
56297;SDS011;42208;6.376;-10.782;2022-12-24T15:11:06;41.67;;;12.68;;
56297;SDS011;42208;6.376;-10.782;2022-12-24T15:13:37;39.05;;;13.20;;
56297;SDS011;42208;6.376;-10.782;2022-12-24T15:16:11;48.78;;;13.45;;
56297;SDS011;42208;6.376;-10.782;2022-12-24T15:18:48;44.72;;;13.10;;
56297;SDS011;42208;6.376;-10.782;2022-12-24T15:21:41;66.90;;;19.67;;
56297;SDS011;42208;6.376;-10.782;2022-12-24T15:24:25;73.43;;;22.00;;
56297;SDS011;42208;6.376;-10.782;2022-12-24T15:26:59;49.58;;;16.20;;
56297;SDS011;42208;6.376;-10.782;2022-12-24T15:29:30;53.33;;;16.02;;
56297;SDS011;42208;6.376;-10.782;2022-12-24T15:32:09;45.58;;;16.60;;
56297;SDS011;42208;6.376;-10.782;2022-12-24T15:34:44;62.65;;;19.40;;
56297;SDS011;42208;6.376;-10.782;2022-12-24T15:37:23;45.38;;;15.50;;
56297;SDS011;42208;6.376;-10.782;2022-12-24T15:40:39;50.25;;;14.80;;
56297;SDS011;42208;6.376;-10.782;2022-12-24T15:42:51;50.20;;;15.68;;
56297;SDS011;42208;6.376;-10.782;2022-12-24T15:45:20;46.25;;;15.07;;
56297;SDS011;42208;6.376;-10.782;2022-12-24T15:47:55;54.00;;;17.60;;
56297;SDS011;42208;6.376;-10.782;2022-12-24T15:50:33;54.50;;;14.55;;
56297;SDS011;42208;6.376;-10.782;2022-12-24T15:53:12;47.13;;;13.40;;
56297;SDS011;42208;6.376;-10.782;2022-12-24T15:59:09;55.38;;;16.65;;
56297;SDS011;42208;6.376;-10.782;2022-12-24T16:01:44;51.45;;;14.90;;
56297;SDS011;42208;6.376;-10.782;2022-12-24T16:04:23;58.63;;;13.55;;
56297;SDS011;42208;6.376;-10.782;2022-12-24T16:12:31;46.80;;;14.27;;
56297;SDS011;42208;6.376;-10.782;2022-12-24T16:15:01;52.83;;;15.02;;
56297;SDS011;42208;6.376;-10.782;2022-12-24T16:17:35;55.45;;;16.65;;
56297;SDS011;42208;6.376;-10.782;2022-12-24T16:20:04;51.30;;;15.30;;
56297;SDS011;42208;6.376;-10.782;2022-12-24T16:22:44;46.20;;;15.20;;
56297;SDS011;42208;6.376;-10.782;2022-12-24T16:25:26;57.15;;;14.02;;
56297;SDS011;42208;6.376;-10.782;2022-12-24T16:27:55;44.70;;;13.45;;
56297;SDS011;42208;6.376;-10.782;2022-12-24T16:30:27;53.67;;;15.40;;
56297;SDS011;42208;6.376;-10.782;2022-12-24T16:32:55;52.13;;;15.65;;
56297;SDS011;42208;6.376;-10.782;2022-12-24T16:35:25;44.78;;;14.13;;
56297;SDS011;42208;6.376;-10.782;2022-12-24T16:38:01;45.60;;;13.02;;
56297;SDS011;42208;6.376;-10.782;2022-12-24T16:40:30;68.57;;;19.10;;
56297;SDS011;42208;6.376;-10.782;2022-12-24T16:43:00;46.88;;;13.77;;
56297;SDS011;42208;6.376;-10.782;2022-12-24T16:45:29;58.83;;;19.13;;
56297;SDS011;42208;6.376;-10.782;2022-12-24T16:47:58;62.33;;;16.58;;
56297;SDS011;42208;6.376;-10.782;2022-12-24T16:50:27;67.03;;;19.30;;
56297;SDS011;42208;6.376;-10.782;2022-12-24T16:53:00;56.03;;;17.83;;
56297;SDS011;42208;6.376;-10.782;2022-12-24T16:55:29;75.75;;;19.10;;